sensor_id;sensor_type;location;lat;lon;timestamp;P1;durP1;ratioP1;P2;durP2;ratioP2
71423;SDS011;59240;51.370;-0.486;2023-07-30T00:02:33;5.35;;;1.95;;
71423;SDS011;59240;51.370;-0.486;2023-07-30T00:07:30;4.03;;;1.30;;
71423;SDS011;59240;51.370;-0.486;2023-07-30T00:12:26;4.90;;;1.80;;
71423;SDS011;59240;51.370;-0.486;2023-07-30T00:17:23;7.53;;;1.10;;
71423;SDS011;59240;51.370;-0.486;2023-07-30T00:22:20;7.63;;;1.42;;
71423;SDS011;59240;51.370;-0.486;2023-07-30T00:27:19;2.67;;;1.10;;
71423;SDS011;59240;51.370;-0.486;2023-07-30T00:32:18;8.25;;;1.30;;
71423;SDS011;59240;51.370;-0.486;2023-07-30T00:37:15;2.20;;;0.90;;
71423;SDS011;59240;51.370;-0.486;2023-07-30T00:42:12;7.55;;;1.85;;
71423;SDS011;59240;51.370;-0.486;2023-07-30T00:47:09;5.68;;;1.45;;
71423;SDS011;59240;51.370;-0.486;2023-07-30T00:52:06;3.33;;;1.42;;
71423;SDS011;59240;51.370;-0.486;2023-07-30T00:57:04;6.15;;;1.13;;
71423;SDS011;59240;51.370;-0.486;2023-07-30T01:02:01;2.22;;;0.88;;
71423;SDS011;59240;51.370;-0.486;2023-07-30T01:06:59;6.95;;;1.25;;
71423;SDS011;59240;51.370;-0.486;2023-07-30T01:11:56;11.05;;;1.40;;
71423;SDS011;59240;51.370;-0.486;2023-07-30T01:16:54;6.57;;;1.30;;
71423;SDS011;59240;51.370;-0.486;2023-07-30T01:21:51;6.68;;;1.27;;
71423;SDS011;59240;51.370;-0.486;2023-07-30T01:26:50;8.23;;;1.45;;
71423;SDS011;59240;51.370;-0.486;2023-07-30T01:31:54;7.15;;;1.30;;
71423;SDS011;59240;51.370;-0.486;2023-07-30T01:36:53;6.40;;;1.70;;
71423;SDS011;59240;51.370;-0.486;2023-07-30T01:41:53;3.92;;;0.98;;
71423;SDS011;59240;51.370;-0.486;2023-07-30T01:46:51;6.82;;;1.17;;
71423;SDS011;59240;51.370;-0.486;2023-07-30T01:51:48;3.35;;;1.58;;
71423;SDS011;59240;51.370;-0.486;2023-07-30T01:56:45;4.35;;;0.93;;
71423;SDS011;59240;51.370;-0.486;2023-07-30T02:01:42;5.97;;;1.20;;
71423;SDS011;59240;51.370;-0.486;2023-07-30T02:06:39;5.35;;;1.08;;
71423;SDS011;59240;51.370;-0.486;2023-07-30T02:11:36;6.68;;;1.13;;
71423;SDS011;59240;51.370;-0.486;2023-07-30T02:16:34;3.70;;;1.08;;
71423;SDS011;59240;51.370;-0.486;2023-07-30T02:21:30;4.20;;;0.98;;
71423;SDS011;59240;51.370;-0.486;2023-07-30T02:26:28;5.60;;;1.83;;
71423;SDS011;59240;51.370;-0.486;2023-07-30T02:31:26;9.70;;;1.20;;
71423;SDS011;59240;51.370;-0.486;2023-07-30T02:36:23;3.92;;;0.90;;
71423;SDS011;59240;51.370;-0.486;2023-07-30T02:41:20;3.17;;;0.88;;
71423;SDS011;59240;51.370;-0.486;2023-07-30T02:46:17;2.80;;;1.33;;
71423;SDS011;59240;51.370;-0.486;2023-07-30T02:51:14;3.05;;;0.60;;
71423;SDS011;59240;51.370;-0.486;2023-07-30T02:56:10;5.00;;;1.02;;
71423;SDS011;59240;51.370;-0.486;2023-07-30T03:01:07;3.67;;;0.82;;
71423;SDS011;59240;51.370;-0.486;2023-07-30T03:06:05;3.35;;;0.60;;
71423;SDS011;59240;51.370;-0.486;2023-07-30T03:11:01;1.60;;;0.80;;
71423;SDS011;59240;51.370;-0.486;2023-07-30T03:15:58;3.33;;;0.68;;
71423;SDS011;59240;51.370;-0.486;2023-07-30T03:21:01;3.20;;;0.90;;
71423;SDS011;59240;51.370;-0.486;2023-07-30T03:26:00;3.58;;;0.73;;
71423;SDS011;59240;51.370;-0.486;2023-07-30T03:30:57;6.05;;;0.60;;
71423;SDS011;59240;51.370;-0.486;2023-07-30T03:35:53;3.38;;;0.90;;
71423;SDS011;59240;51.370;-0.486;2023-07-30T03:40:50;6.57;;;1.02;;
71423;SDS011;59240;51.370;-0.486;2023-07-30T03:45:47;3.05;;;0.60;;
71423;SDS011;59240;51.370;-0.486;2023-07-30T03:50:45;2.15;;;0.80;;
71423;SDS011;59240;51.370;-0.486;2023-07-30T03:55:42;2.60;;;0.63;;
71423;SDS011;59240;51.370;-0.486;2023-07-30T04:00:39;6.55;;;1.00;;
71423;SDS011;59240;51.370;-0.486;2023-07-30T04:05:36;7.32;;;1.02;;
71423;SDS011;59240;51.370;-0.486;2023-07-30T04:10:33;4.50;;;1.05;;
71423;SDS011;59240;51.370;-0.486;2023-07-30T04:15:29;5.20;;;0.85;;
71423;SDS011;59240;51.370;-0.486;2023-07-30T04:20:26;5.93;;;1.58;;
71423;SDS011;59240;51.370;-0.486;2023-07-30T04:25:23;4.53;;;0.75;;
71423;SDS011;59240;51.370;-0.486;2023-07-30T04:30:20;5.78;;;1.05;;
71423;SDS011;59240;51.370;-0.486;2023-07-30T04:35:17;3.45;;;1.15;;
71423;SDS011;59240;51.370;-0.486;2023-07-30T04:40:13;8.20;;;1.20;;
71423;SDS011;59240;51.370;-0.486;2023-07-30T04:45:10;5.90;;;0.90;;
71423;SDS011;59240;51.370;-0.486;2023-07-30T04:50:07;5.25;;;0.93;;
71423;SDS011;59240;51.370;-0.486;2023-07-30T04:55:04;8.05;;;1.05;;
71423;SDS011;59240;51.370;-0.486;2023-07-30T05:00:02;9.93;;;1.33;;
71423;SDS011;59240;51.370;-0.486;2023-07-30T05:04:59;8.60;;;1.60;;
71423;SDS011;59240;51.370;-0.486;2023-07-30T05:09:55;7.15;;;1.38;;
71423;SDS011;59240;51.370;-0.486;2023-07-30T05:14:52;5.88;;;1.25;;
71423;SDS011;59240;51.370;-0.486;2023-07-30T05:19:49;7.50;;;1.40;;
71423;SDS011;59240;51.370;-0.486;2023-07-30T05:24:46;7.53;;;1.60;;
71423;SDS011;59240;51.370;-0.486;2023-07-30T05:29:43;3.78;;;1.23;;
71423;SDS011;59240;51.370;-0.486;2023-07-30T05:34:43;3.28;;;1.10;;
71423;SDS011;59240;51.370;-0.486;2023-07-30T05:39:40;3.15;;;0.95;;
71423;SDS011;59240;51.370;-0.486;2023-07-30T05:44:37;7.57;;;1.33;;
71423;SDS011;59240;51.370;-0.486;2023-07-30T05:49:33;8.35;;;1.10;;
71423;SDS011;59240;51.370;-0.486;2023-07-30T05:54:30;6.78;;;1.05;;
71423;SDS011;59240;51.370;-0.486;2023-07-30T05:59:27;4.65;;;1.35;;
71423;SDS011;59240;51.370;-0.486;2023-07-30T06:04:24;3.50;;;0.80;;
71423;SDS011;59240;51.370;-0.486;2023-07-30T06:09:21;2.30;;;0.90;;
71423;SDS011;59240;51.370;-0.486;2023-07-30T06:14:17;6.50;;;2.25;;
71423;SDS011;59240;51.370;-0.486;2023-07-30T06:19:14;6.70;;;1.27;;
71423;SDS011;59240;51.370;-0.486;2023-07-30T06:24:11;6.97;;;1.10;;
71423;SDS011;59240;51.370;-0.486;2023-07-30T06:29:08;6.72;;;1.45;;
71423;SDS011;59240;51.370;-0.486;2023-07-30T06:34:05;6.63;;;1.30;;
71423;SDS011;59240;51.370;-0.486;2023-07-30T06:39:02;5.53;;;1.33;;
71423;SDS011;59240;51.370;-0.486;2023-07-30T06:43:59;7.72;;;1.10;;
71423;SDS011;59240;51.370;-0.486;2023-07-30T06:48:56;5.95;;;1.75;;
71423;SDS011;59240;51.370;-0.486;2023-07-30T06:53:53;8.68;;;2.13;;
71423;SDS011;59240;51.370;-0.486;2023-07-30T06:58:50;4.53;;;1.20;;
71423;SDS011;59240;51.370;-0.486;2023-07-30T07:03:47;6.07;;;1.38;;
71423;SDS011;59240;51.370;-0.486;2023-07-30T07:08:44;6.22;;;2.95;;
71423;SDS011;59240;51.370;-0.486;2023-07-30T07:13:41;3.85;;;0.88;;
71423;SDS011;59240;51.370;-0.486;2023-07-30T07:18:37;6.15;;;1.42;;
71423;SDS011;59240;51.370;-0.486;2023-07-30T07:23:34;3.10;;;0.90;;
71423;SDS011;59240;51.370;-0.486;2023-07-30T07:28:31;6.07;;;1.10;;
71423;SDS011;59240;51.370;-0.486;2023-07-30T07:33:28;7.45;;;1.55;;
71423;SDS011;59240;51.370;-0.486;2023-07-30T07:38:25;4.68;;;0.85;;
71423;SDS011;59240;51.370;-0.486;2023-07-30T07:43:22;5.55;;;1.58;;
71423;SDS011;59240;51.370;-0.486;2023-07-30T07:48:18;4.55;;;1.00;;
71423;SDS011;59240;51.370;-0.486;2023-07-30T07:53:15;2.80;;;1.33;;
71423;SDS011;59240;51.370;-0.486;2023-07-30T07:58:12;4.78;;;1.25;;
71423;SDS011;59240;51.370;-0.486;2023-07-30T08:03:09;3.88;;;1.13;;
71423;SDS011;59240;51.370;-0.486;2023-07-30T08:08:06;7.07;;;0.90;;
71423;SDS011;59240;51.370;-0.486;2023-07-30T08:13:03;7.25;;;1.08;;
71423;SDS011;59240;51.370;-0.486;2023-07-30T08:17:59;4.18;;;1.27;;
71423;SDS011;59240;51.370;-0.486;2023-07-30T08:22:56;5.22;;;0.90;;
71423;SDS011;59240;51.370;-0.486;2023-07-30T08:27:53;5.28;;;1.20;;
71423;SDS011;59240;51.370;-0.486;2023-07-30T08:32:50;5.13;;;0.88;;
71423;SDS011;59240;51.370;-0.486;2023-07-30T08:37:47;4.97;;;1.27;;
71423;SDS011;59240;51.370;-0.486;2023-07-30T08:42:44;4.00;;;1.10;;
71423;SDS011;59240;51.370;-0.486;2023-07-30T08:47:41;5.82;;;1.10;;
71423;SDS011;59240;51.370;-0.486;2023-07-30T08:52:38;3.20;;;1.10;;
71423;SDS011;59240;51.370;-0.486;2023-07-30T08:57:36;5.35;;;1.38;;
71423;SDS011;59240;51.370;-0.486;2023-07-30T09:02:39;5.03;;;1.10;;
71423;SDS011;59240;51.370;-0.486;2023-07-30T09:07:38;4.25;;;1.30;;
71423;SDS011;59240;51.370;-0.486;2023-07-30T09:12:35;6.10;;;1.38;;
71423;SDS011;59240;51.370;-0.486;2023-07-30T09:17:32;6.63;;;1.13;;
71423;SDS011;59240;51.370;-0.486;2023-07-30T09:22:31;5.47;;;1.40;;
71423;SDS011;59240;51.370;-0.486;2023-07-30T09:27:37;6.88;;;1.77;;
71423;SDS011;59240;51.370;-0.486;2023-07-30T09:32:34;4.25;;;1.05;;
71423;SDS011;59240;51.370;-0.486;2023-07-30T09:37:32;4.22;;;1.17;;
71423;SDS011;59240;51.370;-0.486;2023-07-30T09:42:32;4.70;;;1.70;;
71423;SDS011;59240;51.370;-0.486;2023-07-30T09:47:36;7.32;;;1.33;;
71423;SDS011;59240;51.370;-0.486;2023-07-30T09:52:33;4.88;;;1.17;;
71423;SDS011;59240;51.370;-0.486;2023-07-30T09:57:31;4.95;;;1.30;;
71423;SDS011;59240;51.370;-0.486;2023-07-30T10:02:28;4.70;;;1.20;;
71423;SDS011;59240;51.370;-0.486;2023-07-30T10:07:28;7.50;;;1.63;;
71423;SDS011;59240;51.370;-0.486;2023-07-30T10:12:31;7.78;;;1.80;;
71423;SDS011;59240;51.370;-0.486;2023-07-30T10:17:32;6.25;;;1.65;;
71423;SDS011;59240;51.370;-0.486;2023-07-30T10:22:31;6.45;;;1.48;;
71423;SDS011;59240;51.370;-0.486;2023-07-30T10:27:41;5.22;;;1.48;;
71423;SDS011;59240;51.370;-0.486;2023-07-30T10:37:51;4.47;;;1.35;;
71423;SDS011;59240;51.370;-0.486;2023-07-30T10:42:48;7.20;;;1.35;;
71423;SDS011;59240;51.370;-0.486;2023-07-30T10:47:45;3.45;;;0.85;;
71423;SDS011;59240;51.370;-0.486;2023-07-30T10:52:42;4.97;;;1.80;;
71423;SDS011;59240;51.370;-0.486;2023-07-30T10:57:39;6.88;;;1.80;;
71423;SDS011;59240;51.370;-0.486;2023-07-30T11:02:38;7.30;;;1.40;;
71423;SDS011;59240;51.370;-0.486;2023-07-30T11:07:35;3.85;;;0.88;;
71423;SDS011;59240;51.370;-0.486;2023-07-30T11:12:32;2.47;;;1.38;;
71423;SDS011;59240;51.370;-0.486;2023-07-30T11:17:29;1.15;;;0.63;;
71423;SDS011;59240;51.370;-0.486;2023-07-30T11:22:30;4.82;;;1.80;;
71423;SDS011;59240;51.370;-0.486;2023-07-30T11:27:28;1.05;;;0.82;;
71423;SDS011;59240;51.370;-0.486;2023-07-30T11:32:26;4.80;;;0.60;;
71423;SDS011;59240;51.370;-0.486;2023-07-30T11:37:23;2.13;;;0.80;;
71423;SDS011;59240;51.370;-0.486;2023-07-30T11:42:21;2.92;;;1.40;;
71423;SDS011;59240;51.370;-0.486;2023-07-30T11:47:21;2.40;;;1.38;;
71423;SDS011;59240;51.370;-0.486;2023-07-30T11:52:19;2.88;;;1.20;;
71423;SDS011;59240;51.370;-0.486;2023-07-30T11:57:15;1.60;;;1.10;;
71423;SDS011;59240;51.370;-0.486;2023-07-30T12:02:21;2.58;;;1.08;;
71423;SDS011;59240;51.370;-0.486;2023-07-30T12:07:22;2.10;;;1.27;;
71423;SDS011;59240;51.370;-0.486;2023-07-30T12:12:24;1.95;;;1.13;;
71423;SDS011;59240;51.370;-0.486;2023-07-30T12:17:21;1.83;;;1.25;;
71423;SDS011;59240;51.370;-0.486;2023-07-30T12:22:19;2.28;;;1.38;;
71423;SDS011;59240;51.370;-0.486;2023-07-30T12:27:15;2.30;;;1.35;;
71423;SDS011;59240;51.370;-0.486;2023-07-30T12:32:12;2.55;;;1.50;;
71423;SDS011;59240;51.370;-0.486;2023-07-30T12:37:09;2.95;;;1.60;;
71423;SDS011;59240;51.370;-0.486;2023-07-30T12:42:06;3.80;;;1.45;;
71423;SDS011;59240;51.370;-0.486;2023-07-30T12:47:03;4.20;;;1.60;;
71423;SDS011;59240;51.370;-0.486;2023-07-30T12:52:00;5.20;;;2.78;;
71423;SDS011;59240;51.370;-0.486;2023-07-30T12:56:57;2.45;;;1.83;;
71423;SDS011;59240;51.370;-0.486;2023-07-30T13:01:57;2.70;;;1.20;;
71423;SDS011;59240;51.370;-0.486;2023-07-30T13:06:54;1.67;;;1.13;;
71423;SDS011;59240;51.370;-0.486;2023-07-30T13:11:51;1.77;;;1.20;;
71423;SDS011;59240;51.370;-0.486;2023-07-30T13:16:48;2.88;;;1.35;;
71423;SDS011;59240;51.370;-0.486;2023-07-30T13:21:45;3.97;;;1.42;;
71423;SDS011;59240;51.370;-0.486;2023-07-30T13:26:42;2.72;;;1.30;;
71423;SDS011;59240;51.370;-0.486;2023-07-30T13:31:39;3.58;;;1.83;;
71423;SDS011;59240;51.370;-0.486;2023-07-30T13:36:36;2.17;;;1.33;;
71423;SDS011;59240;51.370;-0.486;2023-07-30T13:41:33;4.75;;;1.88;;
71423;SDS011;59240;51.370;-0.486;2023-07-30T13:46:32;4.43;;;1.35;;
71423;SDS011;59240;51.370;-0.486;2023-07-30T13:51:29;2.25;;;1.20;;
71423;SDS011;59240;51.370;-0.486;2023-07-30T13:56:28;1.98;;;0.98;;
71423;SDS011;59240;51.370;-0.486;2023-07-30T14:01:26;0.98;;;0.40;;
71423;SDS011;59240;51.370;-0.486;2023-07-30T14:06:23;1.15;;;0.60;;
71423;SDS011;59240;51.370;-0.486;2023-07-30T14:11:20;1.90;;;0.70;;
71423;SDS011;59240;51.370;-0.486;2023-07-30T14:16:17;1.40;;;0.70;;
71423;SDS011;59240;51.370;-0.486;2023-07-30T14:21:14;2.60;;;0.60;;
71423;SDS011;59240;51.370;-0.486;2023-07-30T14:26:10;1.77;;;0.57;;
71423;SDS011;59240;51.370;-0.486;2023-07-30T14:31:07;1.30;;;0.77;;
71423;SDS011;59240;51.370;-0.486;2023-07-30T14:36:04;1.10;;;0.70;;
71423;SDS011;59240;51.370;-0.486;2023-07-30T14:41:01;3.05;;;0.98;;
71423;SDS011;59240;51.370;-0.486;2023-07-30T14:45:58;1.73;;;1.00;;
71423;SDS011;59240;51.370;-0.486;2023-07-30T14:50:55;1.83;;;0.88;;
71423;SDS011;59240;51.370;-0.486;2023-07-30T14:55:52;1.90;;;0.73;;
71423;SDS011;59240;51.370;-0.486;2023-07-30T15:00:49;1.30;;;0.60;;
71423;SDS011;59240;51.370;-0.486;2023-07-30T15:05:46;1.67;;;0.70;;
71423;SDS011;59240;51.370;-0.486;2023-07-30T15:10:43;2.15;;;0.90;;
71423;SDS011;59240;51.370;-0.486;2023-07-30T15:15:40;2.60;;;0.80;;
71423;SDS011;59240;51.370;-0.486;2023-07-30T15:20:36;2.90;;;0.80;;
71423;SDS011;59240;51.370;-0.486;2023-07-30T15:25:34;2.17;;;0.90;;
71423;SDS011;59240;51.370;-0.486;2023-07-30T15:30:31;1.80;;;0.80;;
71423;SDS011;59240;51.370;-0.486;2023-07-30T15:35:28;4.65;;;0.90;;
71423;SDS011;59240;51.370;-0.486;2023-07-30T15:40:25;1.48;;;1.00;;
71423;SDS011;59240;51.370;-0.486;2023-07-30T15:45:22;1.73;;;0.95;;
71423;SDS011;59240;51.370;-0.486;2023-07-30T15:50:19;3.10;;;1.30;;
71423;SDS011;59240;51.370;-0.486;2023-07-30T16:00:17;5.32;;;1.80;;
71423;SDS011;59240;51.370;-0.486;2023-07-30T16:05:15;2.45;;;1.27;;
71423;SDS011;59240;51.370;-0.486;2023-07-30T16:10:12;8.18;;;1.17;;
71423;SDS011;59240;51.370;-0.486;2023-07-30T16:15:09;3.50;;;1.70;;
71423;SDS011;59240;51.370;-0.486;2023-07-30T16:20:06;6.65;;;1.92;;
71423;SDS011;59240;51.370;-0.486;2023-07-30T16:25:03;5.07;;;1.90;;
71423;SDS011;59240;51.370;-0.486;2023-07-30T16:30:04;4.10;;;1.95;;
71423;SDS011;59240;51.370;-0.486;2023-07-30T16:35:02;4.57;;;2.00;;
71423;SDS011;59240;51.370;-0.486;2023-07-30T16:39:59;7.93;;;2.58;;
71423;SDS011;59240;51.370;-0.486;2023-07-30T16:44:56;6.97;;;2.47;;
71423;SDS011;59240;51.370;-0.486;2023-07-30T16:49:53;6.88;;;2.47;;
71423;SDS011;59240;51.370;-0.486;2023-07-30T16:54:50;6.45;;;2.42;;
71423;SDS011;59240;51.370;-0.486;2023-07-30T16:59:46;5.78;;;2.60;;
71423;SDS011;59240;51.370;-0.486;2023-07-30T17:04:46;12.05;;;3.13;;
71423;SDS011;59240;51.370;-0.486;2023-07-30T17:09:44;9.85;;;3.38;;
71423;SDS011;59240;51.370;-0.486;2023-07-30T17:14:41;8.13;;;2.92;;
71423;SDS011;59240;51.370;-0.486;2023-07-30T17:19:38;7.70;;;3.63;;
71423;SDS011;59240;51.370;-0.486;2023-07-30T17:24:36;8.55;;;3.28;;
71423;SDS011;59240;51.370;-0.486;2023-07-30T17:29:34;11.38;;;3.15;;
71423;SDS011;59240;51.370;-0.486;2023-07-30T17:34:31;7.20;;;2.88;;
71423;SDS011;59240;51.370;-0.486;2023-07-30T17:39:27;9.38;;;2.38;;
71423;SDS011;59240;51.370;-0.486;2023-07-30T17:44:24;6.78;;;3.45;;
71423;SDS011;59240;51.370;-0.486;2023-07-30T17:49:21;10.15;;;3.97;;
71423;SDS011;59240;51.370;-0.486;2023-07-30T17:54:18;9.50;;;3.22;;
71423;SDS011;59240;51.370;-0.486;2023-07-30T17:59:15;8.70;;;3.13;;
71423;SDS011;59240;51.370;-0.486;2023-07-30T18:04:11;6.97;;;3.28;;
71423;SDS011;59240;51.370;-0.486;2023-07-30T18:09:08;14.93;;;3.60;;
71423;SDS011;59240;51.370;-0.486;2023-07-30T18:14:06;14.13;;;4.50;;
71423;SDS011;59240;51.370;-0.486;2023-07-30T18:19:03;11.15;;;3.38;;
71423;SDS011;59240;51.370;-0.486;2023-07-30T18:24:00;10.75;;;3.72;;
71423;SDS011;59240;51.370;-0.486;2023-07-30T18:28:57;13.02;;;4.05;;
71423;SDS011;59240;51.370;-0.486;2023-07-30T18:33:54;11.80;;;3.45;;
71423;SDS011;59240;51.370;-0.486;2023-07-30T18:38:51;9.52;;;3.30;;
71423;SDS011;59240;51.370;-0.486;2023-07-30T18:43:48;12.80;;;4.03;;
71423;SDS011;59240;51.370;-0.486;2023-07-30T18:48:45;11.82;;;4.38;;
71423;SDS011;59240;51.370;-0.486;2023-07-30T18:53:42;19.63;;;5.05;;
71423;SDS011;59240;51.370;-0.486;2023-07-30T18:58:39;11.98;;;3.95;;
71423;SDS011;59240;51.370;-0.486;2023-07-30T19:03:36;10.00;;;4.07;;
71423;SDS011;59240;51.370;-0.486;2023-07-30T19:08:33;13.23;;;5.47;;
71423;SDS011;59240;51.370;-0.486;2023-07-30T19:13:30;11.82;;;4.63;;
71423;SDS011;59240;51.370;-0.486;2023-07-30T19:18:27;10.68;;;3.47;;
71423;SDS011;59240;51.370;-0.486;2023-07-30T19:23:24;16.88;;;4.07;;
71423;SDS011;59240;51.370;-0.486;2023-07-30T19:28:21;13.30;;;4.38;;
71423;SDS011;59240;51.370;-0.486;2023-07-30T19:33:19;15.90;;;4.35;;
71423;SDS011;59240;51.370;-0.486;2023-07-30T19:38:16;15.00;;;3.80;;
71423;SDS011;59240;51.370;-0.486;2023-07-30T19:43:13;10.20;;;4.10;;
71423;SDS011;59240;51.370;-0.486;2023-07-30T19:48:10;9.05;;;3.78;;
71423;SDS011;59240;51.370;-0.486;2023-07-30T19:53:07;14.55;;;3.83;;
71423;SDS011;59240;51.370;-0.486;2023-07-30T19:58:12;13.73;;;4.03;;
71423;SDS011;59240;51.370;-0.486;2023-07-30T20:03:28;14.38;;;3.75;;
71423;SDS011;59240;51.370;-0.486;2023-07-30T20:08:26;9.98;;;3.78;;
71423;SDS011;59240;51.370;-0.486;2023-07-30T20:13:23;16.00;;;4.40;;
71423;SDS011;59240;51.370;-0.486;2023-07-30T20:18:20;11.18;;;3.50;;
71423;SDS011;59240;51.370;-0.486;2023-07-30T20:23:18;13.40;;;3.63;;
71423;SDS011;59240;51.370;-0.486;2023-07-30T20:28:17;13.18;;;3.67;;
71423;SDS011;59240;51.370;-0.486;2023-07-30T20:33:14;11.30;;;4.05;;
71423;SDS011;59240;51.370;-0.486;2023-07-30T20:38:11;16.13;;;3.70;;
71423;SDS011;59240;51.370;-0.486;2023-07-30T20:43:08;13.40;;;4.30;;
71423;SDS011;59240;51.370;-0.486;2023-07-30T20:48:05;17.88;;;3.97;;
71423;SDS011;59240;51.370;-0.486;2023-07-30T20:53:02;16.27;;;5.28;;
71423;SDS011;59240;51.370;-0.486;2023-07-30T20:57:59;13.63;;;4.15;;
71423;SDS011;59240;51.370;-0.486;2023-07-30T21:02:56;12.38;;;3.35;;
71423;SDS011;59240;51.370;-0.486;2023-07-30T21:07:53;12.40;;;5.03;;
71423;SDS011;59240;51.370;-0.486;2023-07-30T21:12:50;15.15;;;3.90;;
71423;SDS011;59240;51.370;-0.486;2023-07-30T21:17:47;13.27;;;4.18;;
71423;SDS011;59240;51.370;-0.486;2023-07-30T21:22:45;12.15;;;3.95;;
71423;SDS011;59240;51.370;-0.486;2023-07-30T21:27:45;10.70;;;3.85;;
71423;SDS011;59240;51.370;-0.486;2023-07-30T21:32:43;13.93;;;4.95;;
71423;SDS011;59240;51.370;-0.486;2023-07-30T21:37:40;15.40;;;4.85;;
71423;SDS011;59240;51.370;-0.486;2023-07-30T21:42:37;14.15;;;4.43;;
71423;SDS011;59240;51.370;-0.486;2023-07-30T21:47:33;9.90;;;3.25;;
71423;SDS011;59240;51.370;-0.486;2023-07-30T21:52:30;15.32;;;3.70;;
71423;SDS011;59240;51.370;-0.486;2023-07-30T21:57:27;15.88;;;4.05;;
71423;SDS011;59240;51.370;-0.486;2023-07-30T22:02:24;10.50;;;3.58;;
71423;SDS011;59240;51.370;-0.486;2023-07-30T22:07:21;14.18;;;4.78;;
71423;SDS011;59240;51.370;-0.486;2023-07-30T22:12:18;16.27;;;4.13;;
71423;SDS011;59240;51.370;-0.486;2023-07-30T22:17:15;8.48;;;3.95;;
71423;SDS011;59240;51.370;-0.486;2023-07-30T22:22:12;11.00;;;3.72;;
71423;SDS011;59240;51.370;-0.486;2023-07-30T22:27:08;14.20;;;4.10;;
71423;SDS011;59240;51.370;-0.486;2023-07-30T22:32:05;13.32;;;4.00;;
71423;SDS011;59240;51.370;-0.486;2023-07-30T22:37:03;14.02;;;4.60;;
71423;SDS011;59240;51.370;-0.486;2023-07-30T22:42:00;12.00;;;3.85;;
71423;SDS011;59240;51.370;-0.486;2023-07-30T22:46:56;15.38;;;3.85;;
71423;SDS011;59240;51.370;-0.486;2023-07-30T22:51:53;18.40;;;3.55;;
71423;SDS011;59240;51.370;-0.486;2023-07-30T22:56:50;13.82;;;4.82;;
71423;SDS011;59240;51.370;-0.486;2023-07-30T23:01:47;9.05;;;3.80;;
71423;SDS011;59240;51.370;-0.486;2023-07-30T23:06:44;14.48;;;3.80;;
71423;SDS011;59240;51.370;-0.486;2023-07-30T23:11:41;11.40;;;3.38;;
71423;SDS011;59240;51.370;-0.486;2023-07-30T23:16:37;9.98;;;3.10;;
71423;SDS011;59240;51.370;-0.486;2023-07-30T23:21:35;8.93;;;2.85;;
71423;SDS011;59240;51.370;-0.486;2023-07-30T23:26:32;10.80;;;2.85;;
71423;SDS011;59240;51.370;-0.486;2023-07-30T23:31:29;14.00;;;3.35;;
71423;SDS011;59240;51.370;-0.486;2023-07-30T23:36:25;13.68;;;3.10;;
71423;SDS011;59240;51.370;-0.486;2023-07-30T23:41:22;9.73;;;2.83;;
71423;SDS011;59240;51.370;-0.486;2023-07-30T23:46:19;9.93;;;2.63;;
71423;SDS011;59240;51.370;-0.486;2023-07-30T23:51:16;10.38;;;2.58;;
71423;SDS011;59240;51.370;-0.486;2023-07-30T23:56:13;7.40;;;2.42;;
